Time;durP1;ratioP1;P1;durP2;ratioP2;P2;SDS_P1;SDS_P2;PMS_P1;PMS_P2;Temp;Humidity;BMP_temperature;BMP_pressure;BME280_temperature;BME280_humidity;BME280_pressure;Samples;Min_cycle;Max_cycle;Signal;HPM_P1;HPM_P2
2022/05/10 00:00:15;;;;;;;8.70;5.70;;;;;;;10.85;42.92;101443.41;109478;1263;22007;-80
2022/05/10 00:03:07;;;;;;;13.80;6.20;;;;;;;10.83;43.06;101444.11;109557;1264;21967;-79
2022/05/10 00:05:42;;;;;;;12.50;6.40;;;;;;;10.79;43.25;101441.45;109151;1267;22131;-80
2022/05/10 00:08:17;;;;;;;11.10;6.60;;;;;;;10.77;43.38;101437.98;109131;1267;23712;-80
2022/05/10 00:10:48;;;;;;;9.60;6.60;;;;;;;10.75;43.43;101435.34;108930;1270;21997;-79
2022/05/10 00:13:18;;;;;;;16.50;7.10;;;;;;;10.72;43.48;101435.41;108417;1276;22052;-79
2022/05/10 00:15:57;;;;;;;12.30;7.00;;;;;;;10.71;43.70;101436.79;108704;1273;21982;-78
2022/05/10 00:18:31;;;;;;;17.10;8.20;;;;;;;10.67;43.97;101431.48;108459;1276;22105;-78
2022/05/10 00:21:02;;;;;;;12.10;7.80;;;;;;;10.64;44.14;101428.10;108480;1276;24394;-78
2022/05/10 00:23:31;;;;;;;14.70;7.70;;;;;;;10.61;44.28;101425.40;108520;1270;22099;-78
2022/05/10 00:26:07;;;;;;;13.80;7.70;;;;;;;10.57;44.35;101423.05;108735;1270;23690;-79
2022/05/10 00:28:36;;;;;;;19.40;9.70;;;;;;;10.54;44.45;101421.66;108772;1270;21991;-80
2022/05/10 00:31:09;;;;;;;16.00;9.20;;;;;;;10.47;44.53;101421.90;108898;1270;22444;-79
2022/05/10 00:33:39;;;;;;;18.00;9.40;;;;;;;10.42;44.66;101417.98;108857;1270;21979;-80
2022/05/10 00:36:12;;;;;;;12.30;9.30;;;;;;;10.37;44.80;101416.54;108837;1273;22927;-81
2022/05/10 00:38:41;;;;;;;11.30;8.70;;;;;;;10.33;44.96;101417.57;109383;1264;23608;-80
2022/05/10 00:41:36;;;;;;;10.80;8.50;;;;;;;10.28;44.94;101415.36;109109;1270;22768;-80
2022/05/10 00:44:15;;;;;;;14.10;9.30;;;;;;;10.23;45.12;101414.59;109154;1267;22027;-80
2022/05/10 00:46:58;;;;;;;14.30;8.20;;;;;;;10.17;45.21;101414.89;109168;1270;21986;-80
2022/05/10 00:49:57;;;;;;;15.10;9.30;;;;;;;10.13;45.38;101411.42;108709;1272;22091;-80
2022/05/10 00:53:03;;;;;;;17.60;9.00;;;;;;;10.07;45.42;101405.24;108541;1276;23106;-80
2022/05/10 00:56:06;;;;;;;17.20;9.80;;;;;;;10.00;45.58;101405.39;108593;1272;22040;-79
2022/05/10 00:58:55;;;;;;;14.60;9.20;;;;;;;9.97;45.82;101405.85;108478;1276;23163;-80
2022/05/10 01:01:32;;;;;;;14.50;8.60;;;;;;;9.95;45.96;101402.69;108401;1276;21989;-79
2022/05/10 01:04:31;;;;;;;17.40;9.40;;;;;;;9.91;45.87;101401.41;108677;1275;21988;-80
2022/05/10 01:07:19;;;;;;;12.30;9.50;;;;;;;9.86;45.95;101396.95;108660;1270;23064;-80
2022/05/10 01:10:17;;;;;;;15.80;9.80;;;;;;;9.83;46.15;101392.65;108869;1270;22871;-80
2022/05/10 01:13:00;;;;;;;15.10;10.00;;;;;;;9.80;46.36;101387.96;108796;1275;21985;-80
2022/05/10 01:15:34;;;;;;;17.20;9.80;;;;;;;9.78;46.34;101388.00;108581;1279;22004;-81
2022/05/10 01:18:04;;;;;;;;;;;;;;;9.74;46.34;101383.73;108660;1274;21963;-79
2022/05/10 01:20:42;;;;;;;;;;;;;;;9.67;46.55;101381.95;108683;1273;21972;-79
2022/05/10 01:23:44;;;;;;;;;;;;;;;9.59;46.57;101378.61;108856;1273;23220;-79
2022/05/10 01:26:32;;;;;;;;;;;;;;;9.54;46.67;101377.45;108404;1279;21975;-80
2022/05/10 01:29:06;;;;;;;;;;;;;;;9.53;46.83;101380.40;108514;1279;22082;-80
2022/05/10 01:31:42;;;;;;;;;;;;;;;9.51;46.89;101377.73;108331;1279;22396;-78
2022/05/10 01:34:19;;;;;;;;;;;;;;;9.51;47.01;101378.13;108555;1279;22004;-81
2022/05/10 01:36:58;;;;;;;;;;;;;;;9.50;47.09;101373.95;108799;1273;22036;-80
2022/05/10 01:39:32;;;;;;;;;;;;;;;9.51;47.15;101372.37;108913;1270;21986;-79
2022/05/10 01:42:27;;;;;;;;;;;;;;;9.49;47.11;101366.19;108731;1270;21968;-78
2022/05/10 01:45:10;;;;;;;;;;;;;;;9.45;47.08;101365.79;109033;1270;23146;-78
2022/05/10 01:47:48;;;;;;;;;;;;;;;9.42;47.12;101361.28;109029;1270;22037;-80
2022/05/10 01:50:20;;;;;;;;;;;;;;;9.39;47.21;101361.15;109034;1267;23681;-80
2022/05/10 01:53:07;;;;;;;;;;;;;;;9.35;47.11;101365.23;109067;1270;23175;-81
2022/05/10 01:55:47;;;;;;;;;;;;;;;9.30;47.18;101361.29;109308;1267;23336;-81
2022/05/10 01:58:37;;;;;;;;;;;;;;;9.28;47.25;101359.88;108686;1273;21970;-80
2022/05/10 02:01:40;;;;;;;;;;;;;;;9.25;47.35;101355.61;108873;1273;21982;-80
2022/05/10 02:04:14;;;;;;;;;;;;;;;9.21;47.25;101352.29;109231;1267;21960;-80
2022/05/10 02:06:46;;;;;;;;;;;;;;;9.17;47.31;101352.92;109402;1267;22292;-80
2022/05/10 02:09:39;;;;;;;;;;;;;;;9.15;47.31;101354.33;109394;1267;21975;-79
2022/05/10 02:12:33;;;;;;;;;;;;;;;9.10;47.36;101354.59;109084;1270;21959;-80
2022/05/10 02:15:18;;;;;;;;;;;;;;;9.09;47.51;101348.92;109021;1267;23349;-80
2022/05/10 02:18:26;;;;;;;;;;;;;;;9.07;47.56;101345.39;109350;1267;23398;-81
2022/05/10 02:21:09;;;;;;;;;;;;;;;9.05;47.65;101343.66;109245;1267;21979;-81
2022/05/10 02:23:46;;;;;;;;;;;;;;;9.02;47.64;101344.04;109490;1265;22186;-80
2022/05/10 02:26:34;;;;;;;;;;;;;;;9.00;47.61;101343.23;109788;1264;21960;-81
2022/05/10 02:29:16;;;;;;;;;;;;;;;8.97;47.74;101343.84;109840;1263;23587;-81
2022/05/10 02:34:43;;;;;;;;;;;;;;;8.93;47.97;101335.74;109803;1264;21969;-80
2022/05/10 02:37:13;;;;;;;;;;;;;;;8.89;47.99;101332.17;109378;1266;21987;-81
2022/05/10 02:39:43;;;;;;;;;;;;;;;8.86;48.08;101330.30;109780;1264;21973;-81
2022/05/10 02:42:15;;;;;;;;;;;;;;;8.84;48.29;101331.52;108952;1272;21965;-81
2022/05/10 02:44:44;;;;;;;;;;;;;;;8.83;48.27;101328.88;108802;1273;21987;-81
2022/05/10 02:47:13;;;;;;;;;;;;;;;8.79;48.29;101327.92;108906;1273;22214;-80
2022/05/10 02:49:42;;;;;;;;;;;;;;;8.76;48.32;101326.30;108533;1276;21994;-79
2022/05/10 02:52:11;;;;;;;;;;;;;;;8.71;48.43;101329.35;108291;1276;23733;-79
2022/05/10 02:54:40;;;;;;;;;;;;;;;8.67;48.70;101326.92;108315;1279;21986;-79
2022/05/10 02:57:09;;;;;;;;;;;;;;;8.65;48.91;101327.39;108356;1279;23153;-81
2022/05/10 02:59:39;;;;;;;;;;;;;;;8.66;49.04;101325.77;108154;1279;23112;-79
2022/05/10 03:02:24;;;;;;;;;;;;;;;8.64;48.98;101328.15;108045;1276;22051;-79
2022/05/10 03:04:59;;;;;;;;;;;;;;;8.62;49.13;101322.23;108398;1279;21975;-79
2022/05/10 03:07:29;;;;;;;;;;;;;;;8.60;49.26;101324.12;107845;1282;22001;-79
2022/05/10 03:09:58;;;;;;;;;;;;;;;8.58;49.33;101320.95;108270;1277;21969;-81
2022/05/10 03:12:28;;;;;;;;;;;;;;;8.58;49.36;101325.08;108737;1271;24625;-81
2022/05/10 03:14:59;;;;;;;;;;;;;;;8.57;49.40;101323.57;109205;1267;22483;-81
2022/05/10 03:17:30;;;;;;;;;;;;;;;8.56;49.45;101326.09;109326;1267;21963;-82
2022/05/10 03:19:59;;;;;;;;;;;;;;;8.55;49.51;101325.31;109298;1267;21963;-83
2022/05/10 03:22:29;;;;;;;;;;;;;;;8.54;49.57;101319.96;109347;1267;24306;-79
2022/05/10 03:24:58;;;;;;;;;;;;;;;8.54;49.71;101321.56;109726;1257;23670;-80
2022/05/10 03:27:30;;;;;;;;;;;;;;;8.55;49.82;101320.24;110613;1258;21987;-80
2022/05/10 03:29:59;;;;;;;;;;;;;;;8.54;49.80;101322.03;110676;1256;22094;-80
2022/05/10 03:32:29;;;;;;;;;;;;;;;8.52;49.73;101321.30;110582;1259;23694;-81
2022/05/10 03:34:58;;;;;;;;;;;;;;;8.49;49.78;101320.98;110598;1258;21967;-81
2022/05/10 03:37:29;;;;;;;;;;;;;;;8.46;49.76;101320.72;110583;1258;21979;-81
2022/05/10 03:40:00;;;;;;;;;;;;;;;8.45;50.02;101323.45;110425;1257;21999;-81
2022/05/10 03:42:32;;;;;;;;;;;;;;;8.46;50.20;101323.00;110550;1257;23001;-80
2022/05/10 03:45:02;;;;;;;;;;;;;;;8.49;50.25;101322.77;110160;1257;22005;-80
2022/05/10 03:47:32;;;;;;;;;;;;;;;8.53;50.43;101321.40;110577;1258;21954;-81
2022/05/10 03:50:04;;;;;;;;;;;;;;;8.56;50.46;101325.54;110523;1257;21953;-81
2022/05/10 03:52:33;;;;;;;;;;;;;;;8.59;50.46;101327.08;110471;1256;21960;-81
2022/05/10 03:55:03;;;;;;;;;;;;;;;8.60;50.51;101325.42;110223;1257;23569;-81
2022/05/10 03:57:40;;;;;;;;;;;;;;;8.65;50.70;101331.24;110575;1258;21960;-80
2022/05/10 04:00:16;;;;;;;;;;;;;;;8.70;50.49;101328.75;110450;1257;21943;-82
2022/05/10 04:02:47;;;;;;;;;;;;;;;8.73;50.57;101325.70;110395;1258;23596;-79
2022/05/10 04:05:18;;;;;;;;;;;;;;;8.78;50.69;101326.65;109982;1262;21964;-80
2022/05/10 04:07:47;;;;;;;;;;;;;;;8.84;50.66;101323.34;109969;1261;23757;-80
2022/05/10 04:10:19;;;;;;;;;;;;;;;8.88;50.50;101319.47;109483;1265;21971;-78
2022/05/10 04:12:51;;;;;;;;;;;;;;;8.93;50.58;101319.38;109655;1263;23667;-79
2022/05/10 04:15:20;;;;;;;;;;;;;;;9.01;50.81;101319.17;109008;1267;21967;-78
2022/05/10 04:17:52;;;;;;;;;;;;;;;9.12;50.51;101321.80;109083;1267;21970;-79
2022/05/10 04:20:21;;;;;;;;;;;;;;;9.15;50.07;101320.23;108932;1270;22134;-79
2022/05/10 04:22:51;;;;;;;;;;;;;;;9.19;49.92;101316.05;108956;1267;21961;-78
2022/05/10 04:25:25;;;;;;;;;;;;;;;9.24;50.01;101315.11;108983;1267;22143;-80
2022/05/10 04:27:55;;;;;;;;;;;;;;;9.30;50.02;101313.63;108953;1270;21967;-80
2022/05/10 04:30:25;;;;;;;;;;;;;;;9.42;50.25;101313.14;109468;1263;22568;-80
2022/05/10 04:32:54;;;;;;;;;;;;;;;9.53;49.96;101305.67;109531;1257;22023;-81
2022/05/10 04:35:23;;;;;;;;;;;;;;;9.63;49.98;101309.29;110411;1258;21960;-82
2022/05/10 04:37:56;;;;;;;;;;;;;;;9.77;50.09;101307.15;110420;1257;22724;-80
2022/05/10 04:43:23;;;;;;;;;;;;;;;10.13;49.82;101304.77;110252;1257;23129;-81
2022/05/10 04:45:56;;;;;;;;;;;;;;;10.27;49.62;101305.60;110268;1258;22025;-81
2022/05/10 04:48:28;;;;;;;;;;;;;;;10.41;49.44;101305.33;109399;1264;21962;-82
2022/05/10 04:50:58;;;;;;;;;;;;;;;10.52;49.06;101304.46;109494;1264;23603;-82
2022/05/10 04:53:35;;;;;;;;;;;;;;;10.65;48.84;101305.23;109308;1267;23687;-79
2022/05/10 04:56:06;;;;;;;;;;;;;;;10.79;48.52;101308.98;108905;1273;21953;-82
2022/05/10 04:58:36;;;;;;;;;;;;;;;10.95;48.38;101307.16;108638;1273;21989;-81
2022/05/10 05:01:09;;;;;;;;;;;;;;;11.12;48.03;101309.55;108345;1279;22012;-76
2022/05/10 05:03:48;;;;;;;;;;;;;;;11.30;47.78;101309.33;108391;1278;23812;-76
2022/05/10 05:06:17;;;;;;;;;;;;;;;11.56;47.51;101309.86;108296;1278;23687;-76
2022/05/10 05:08:46;;;;;;;;;;;;;;;11.77;47.04;101311.83;108292;1279;23615;-76
2022/05/10 05:11:16;;;;;;;;;;;;;;;12.03;46.67;101312.27;108268;1277;23833;-77
2022/05/10 05:13:48;;;;;;;;;;;;;;;12.31;45.97;101312.30;108420;1267;21989;-79
2022/05/10 05:16:26;;;;;;;;;;;;;;;12.56;45.41;101314.69;109175;1267;22006;-81
2022/05/10 05:19:06;;;;;;;;;;;;;;;12.79;45.00;101316.71;108929;1267;23069;-81
2022/05/10 05:21:41;;;;;;;;;;;;;;;13.06;44.69;101316.36;109131;1267;23677;-81
2022/05/10 05:24:13;;;;;;;;;;;;;;;13.34;44.21;101312.70;108748;1272;21962;-79
2022/05/10 05:26:46;;;;;;;;;;;;;;;13.66;43.64;101314.85;108778;1273;21968;-80
2022/05/10 05:29:15;;;;;;;;;;;;;;;13.95;43.13;101314.70;108671;1273;21968;-79
2022/05/10 05:31:56;;;;;;;;;;;;;;;14.28;42.99;101310.97;108650;1270;22095;-79
2022/05/10 05:34:25;;;;;;;;;;;;;;;14.62;42.36;101313.39;108825;1273;22377;-80
2022/05/10 05:39:42;;;;;;;;;;;;;;;15.06;40.65;101312.38;109124;1270;22043;-80
2022/05/10 05:42:11;;;;;;;;;;;;;;;15.29;40.18;101314.95;109587;1263;22021;-81
2022/05/10 05:44:40;;;;;;;;;;;;;;;15.57;40.24;101317.04;109650;1260;21958;-81
2022/05/10 05:47:14;;;;;;;;;;;;;;;15.91;39.92;101315.55;109537;1267;21959;-80
2022/05/10 05:49:43;;;;;;;;;;;;;;;16.24;39.49;101320.79;109116;1267;22010;-81
2022/05/10 05:52:13;;;;;;;;;;;;;;;16.50;38.67;101320.48;109161;1267;21992;-81
2022/05/10 05:54:44;;;;;;;;;;;;;;;16.75;38.28;101319.20;109255;1267;23011;-80
2022/05/10 05:57:13;;;;;;;;;;;;;;;17.00;37.82;101322.67;109404;1267;21959;-80
2022/05/10 05:59:43;;;;;;;;;;;;;;;17.20;37.43;101321.35;109014;1270;23149;-79
2022/05/10 06:02:16;;;;;;;;;;;;;;;17.49;36.91;101321.30;108831;1270;22026;-78
2022/05/10 06:04:45;;;;;;;;;;;;;;;17.61;36.03;101320.52;108863;1270;23839;-79
2022/05/10 06:07:15;;;;;;;;;;;;;;;17.78;35.87;101321.36;108894;1265;23676;-78
2022/05/10 06:09:45;;;;;;;;;;;;;;;17.87;35.42;101318.63;109210;1267;22940;-79
2022/05/10 06:12:16;;;;;;;;;;;;;;;18.05;35.37;101316.72;108865;1267;23047;-77
2022/05/10 06:14:46;;;;;;;;;;;;;;;18.20;34.91;101316.21;109141;1266;23316;-79
2022/05/10 06:17:18;;;;;;;;;;;;;;;18.36;34.51;101317.96;108948;1267;23045;-78
2022/05/10 06:19:49;;;;;;;;;;;;;;;18.62;34.66;101318.38;109130;1267;21959;-80
2022/05/10 06:22:25;;;;;;;;;;;;;;;18.97;34.61;101315.53;109163;1264;21965;-78
2022/05/10 06:24:54;;;;;;;;;;;;;;;19.30;34.18;101315.83;109721;1260;23685;-78
2022/05/10 06:27:23;;;;;;;;;;;;;;;19.34;32.86;101315.80;109539;1264;23044;-78
2022/05/10 06:29:58;;;;;;;;;;;;;;;19.34;32.58;101313.90;109788;1258;22285;-79
2022/05/10 06:32:31;;;;;;;;;;;;;;;19.51;32.78;101312.98;109576;1264;22913;-79
2022/05/10 06:35:00;;;;;;;;;;;;;;;19.64;32.49;101312.91;110210;1261;23617;-80
2022/05/10 06:40:18;;;;;;;;;;;;;;;19.89;31.87;101304.36;109101;1267;23510;-78
2022/05/10 06:42:47;;;;;;;;;;;;;;;20.09;31.43;101302.62;109162;1267;21952;-80
2022/05/10 06:45:18;;;;;;;;;;;;;;;20.14;31.18;101301.05;109156;1267;22033;-79
2022/05/10 06:47:49;;;;;;;;;;;;;;;20.12;31.15;101294.31;109172;1267;21964;-78
2022/05/10 06:50:20;;;;;;;;;;;;;;;20.23;31.16;101291.70;108759;1268;459896;-79
2022/05/10 06:52:51;;;;;;;;;;;;;;;20.44;30.71;101288.25;109192;1267;23809;-80
2022/05/10 06:55:23;;;;;;;;;;;;;;;20.76;30.60;101285.24;109346;1263;22032;-80
2022/05/10 06:57:55;;;;;;;;;;;;;;;21.07;29.95;101286.96;110072;1257;22054;-80
2022/05/10 07:00:32;;;;;;;;;;;;;;;21.28;29.46;101281.90;110189;1257;23031;-79
2022/05/10 07:03:11;;;;;;;;;;;;;;;21.50;29.29;101278.36;110361;1257;21950;-80
2022/05/10 07:05:43;;;;;;;;;;;;;;;21.69;28.80;101279.20;110297;1258;21968;-79
2022/05/10 07:08:14;;;;;;;;;;;;;;;21.67;27.93;101277.86;109548;1264;21961;-80
2022/05/10 07:10:44;;;;;;;;;;;;;;;21.76;28.32;101276.17;109109;1267;21964;-80
2022/05/10 07:13:22;;;;;;;;;;;;;;;21.92;27.99;101271.36;108685;1272;23212;-79
2022/05/10 07:15:51;;;;;;;;;;;;;;;22.17;28.10;101268.34;108679;1272;25143;-80
2022/05/10 07:18:23;;;;;;;;;;;;;;;22.27;27.74;101265.36;108746;1273;22431;-78
2022/05/10 07:20:52;;;;;;;;;;;;;;;22.32;27.36;101264.48;108826;1270;22005;-78
2022/05/10 07:23:24;;;;;;;;;;;;;;;22.43;27.07;101259.55;108442;1276;21997;-80
2022/05/10 07:25:53;;;;;;;;;;;;;;;22.69;27.30;101257.80;108531;1276;23690;-83
2022/05/10 07:28:29;;;;;;;;;;;;;;;23.01;27.11;101252.18;108637;1273;24542;-81
2022/05/10 07:31:00;;;;;;;;;;;;;;;23.22;26.80;101248.45;108847;1270;21962;-79
2022/05/10 07:33:30;;;;;;;;;;;;;;;23.37;26.36;101246.62;109544;1261;23557;-79
2022/05/10 07:38:48;;;;;;;;;;;;;;;23.71;26.00;101241.58;109687;1261;23042;-79
2022/05/10 07:41:21;;;;;;;;;;;;;;;24.05;26.47;101243.00;109794;1258;21954;-78
2022/05/10 07:43:51;;;;;;;;;;;;;;;24.40;25.39;101247.73;110451;1257;23684;-78
2022/05/10 07:46:20;;;;;;;;;;;;;;;24.50;24.69;101247.17;110428;1257;21994;-78
2022/05/10 07:48:50;;;;;;;;;;;;;;;24.48;24.47;101250.60;110374;1257;22325;-78
2022/05/10 07:51:21;;;;;;;;;;;;;;;24.42;24.66;101246.05;110415;1257;23053;-79
2022/05/10 07:53:51;;;;;;;;;;;;;;;24.48;24.38;101244.35;110398;1257;21954;-78
2022/05/10 07:56:20;;;;;;;;;;;;;;;24.51;24.08;101240.89;110328;1257;24426;-78
2022/05/10 07:58:55;;;;;;;;;;;;;;;24.50;24.54;101241.89;110364;1257;21958;-80
2022/05/10 08:01:26;;;;;;;;;;;;;;;24.56;24.62;101243.52;110461;1257;23616;-79
2022/05/10 08:03:58;;;;;;;;;;;;;;;24.51;24.46;101245.20;110196;1260;21967;-79
2022/05/10 08:06:27;;;;;;;;;;;;;;;24.73;24.86;101243.13;110159;1260;21971;-78
2022/05/10 08:08:56;;;;;;;;;;;;;;;25.07;24.64;101244.90;109988;1260;23038;-79
2022/05/10 08:11:25;;;;;;;;;;;;;;;25.24;23.21;101235.61;110172;1260;22053;-79
2022/05/10 08:13:54;;;;;;;;;;;;;;;25.20;22.98;101238.67;110144;1259;21961;-78
2022/05/10 08:16:25;;;;;;;;;;;;;;;25.19;22.78;101236.75;110202;1260;21957;-79
2022/05/10 08:18:54;;;;;;;;;;;;;;;25.33;23.21;101230.17;110206;1260;22116;-79
2022/05/10 08:21:24;;;;;;;;;;;;;;;25.66;23.48;101224.08;109608;1263;23659;-78
2022/05/10 08:23:55;;;;;;;;;;;;;;;25.99;22.64;101223.29;109600;1260;21967;-78
2022/05/10 08:26:24;;;;;;;;;;;;;;;26.16;22.38;101220.92;109660;1260;21958;-78
2022/05/10 08:28:53;;;;;;;;;;;;;;;26.23;22.58;101223.45;109794;1261;23729;-79
2022/05/10 08:31:26;;;;;;;;;;;;;;;26.36;22.50;101225.73;109902;1260;23677;-78
2022/05/10 08:33:55;;;;;;;;;;;;;;;26.62;22.06;101222.61;109786;1263;22013;-79
2022/05/10 08:36:24;;;;;;;;;;;;;;;26.84;21.88;101218.95;109892;1260;24483;-78
2022/05/10 08:38:54;;;;;;;;;;;;;;;27.07;21.72;101220.82;109914;1258;22329;-78
2022/05/10 08:41:41;;;;;;;;;;;;;;;26.86;20.99;101214.95;110395;1257;22706;-78
2022/05/10 08:44:20;;;;;;;;;;;;;;;26.76;21.94;101214.80;110452;1257;22071;-78
2022/05/10 08:46:56;;;;;;;;;;;;;;;26.64;21.55;101212.27;109606;1263;23710;-78
2022/05/10 08:49:32;;;;;;;;;;;;;;;26.57;21.69;101212.73;109227;1264;22023;-78
2022/05/10 08:52:02;;;;;;;;;;;;;;;26.66;21.43;101215.38;109066;1270;23101;-79
2022/05/10 08:54:31;;;;;;;;;;;;;;;26.52;21.06;101213.74;108844;1270;22075;-79
2022/05/10 08:57:24;;;;;;;;;;;;;;;26.44;21.41;101213.31;109076;1270;22691;-79
2022/05/10 09:00:06;;;;;;;;;;;;;;;26.41;21.51;101211.98;108875;1270;22033;-78
2022/05/10 09:02:54;;;;;;;;;;;;;;;26.35;21.34;101210.77;108824;1270;21969;-79
2022/05/10 09:05:29;;;;;;;;;;;;;;;26.48;21.45;101205.25;109289;1263;22276;-78
2022/05/10 09:08:11;;;;;;;;;;;;;;;26.77;21.74;101208.41;109832;1263;22266;-78
2022/05/10 09:10:49;;;;;;;;;;;;;;;27.01;21.22;101210.70;109978;1260;22738;-78
2022/05/10 09:13:20;;;;;;;;;;;;;;;27.22;20.87;101199.64;110029;1258;22023;-79
2022/05/10 09:16:10;;;;;;;;;;;;;;;27.36;20.49;101197.92;110157;1260;21955;-78
2022/05/10 09:18:45;;;;;;;;;;;;;;;27.57;20.14;101202.86;109957;1262;23187;-78
2022/05/10 09:21:16;;;;;;;;;;;;;;;27.35;20.05;101198.72;109936;1262;22742;-79
2022/05/10 09:24:06;;;;;;;;;;;;;;;27.17;20.36;101190.80;109915;1262;23614;-80
2022/05/10 09:26:36;;;;;;;;;;;;;;;26.98;20.57;101184.00;109906;1262;22695;-79
2022/05/10 09:29:08;;;;;;;;;;;;;;;27.12;21.07;101176.01;108861;1270;22921;-78
2022/05/10 09:34:45;;;;;;;;;;;;;;;27.65;20.15;101160.62;108829;1273;21999;-79
2022/05/10 09:37:36;;;;;;;;;;;;;;;27.79;19.96;101164.70;108731;1270;21971;-78
2022/05/10 09:40:46;;;;;;;;;;;;;;;27.68;19.28;101156.70;108754;1273;22933;-77
2022/05/10 09:43:17;;;;;;;;;;;;;;;27.81;19.71;101149.98;108102;1283;21983;-78
2022/05/10 09:46:18;;;;;;;;;;;;;;;27.86;19.35;101149.09;108072;1282;23113;-79
2022/05/10 09:48:48;;;;;;;;;;;;;;;27.94;19.82;101144.84;108492;1279;23618;-78
2022/05/10 09:51:39;;;;;;;;;;;;;;;28.21;19.64;101142.14;108772;1273;23641;-79
2022/05/10 09:54:21;;;;;;;;;;;;;;;28.16;18.65;101138.10;108537;1273;21999;-78
2022/05/10 09:56:58;;;;;;;;;;;;;;;27.92;19.11;101131.59;108884;1270;21982;-78
2022/05/10 09:59:37;;;;;;;;;;;;;;;27.93;19.44;101125.67;109193;1268;22029;-78
2022/05/10 10:02:08;;;;;;;;;;;;;;;27.99;18.99;101127.22;109514;1263;22997;-78
2022/05/10 10:04:40;;;;;;;;;;;;;;;27.97;18.98;101120.31;109405;1264;22333;-78
2022/05/10 10:07:16;;;;;;;;;;;;;;;28.04;19.07;101121.42;109428;1263;21961;-79
2022/05/10 10:09:56;;;;;;;;;;;;;;;28.03;18.75;101115.39;109542;1266;21977;-78
2022/05/10 10:12:39;;;;;;;;;;;;;;;27.91;18.25;101112.09;109322;1263;23663;-79
2022/05/10 10:15:24;;;;;;;;;;;;;;;27.75;18.58;101110.25;109255;1263;22030;-77
2022/05/10 10:17:59;;;;;;;;;;;;;;;27.60;18.50;101108.05;109679;1264;21990;-77
2022/05/10 10:20:51;;;;;;;;;;;;;;;27.28;18.63;101104.39;110325;1257;21927;-78
2022/05/10 10:23:22;;;;;;;;;;;;;;;27.18;18.73;101099.86;109566;1264;21972;-78
2022/05/10 10:25:55;;;;;;;;;;;;;;;27.22;18.82;101094.09;109877;1262;22177;-77
2022/05/10 10:28:50;;;;;;;;;;;;;;;27.18;18.82;101093.56;109808;1263;23565;-77
2022/05/10 10:31:19;;;;;;;;;;;;;;;26.80;18.74;101083.48;108948;1267;21969;-77
2022/05/10 10:33:54;;;;;;;;;;;;;;;26.61;19.18;101080.55;109132;1267;21977;-79
2022/05/10 10:36:27;;;;;;;;;;;;;;;26.41;18.94;101083.78;109177;1267;22392;-77
2022/05/10 10:38:59;;;;;;;;;;;;;;;26.08;19.40;101078.45;109084;1267;23602;-78
2022/05/10 10:41:51;;;;;;;;;;;;;;;25.70;19.78;101071.23;108829;1267;21983;-79
2022/05/10 10:44:45;;;;;;;;;;;;;;;25.33;20.18;101064.30;109096;1268;21967;-79
2022/05/10 10:47:21;;;;;;;;;;;;;;;25.10;20.22;101056.20;108974;1270;22029;-79
2022/05/10 10:50:15;;;;;;;;;;;;;;;24.90;20.16;101055.45;108881;1270;21969;-78
2022/05/10 10:52:52;;;;;;;;;;;;;;;24.85;20.93;101050.12;109210;1267;22219;-79
2022/05/10 10:55:42;;;;;;;;;;;;;;;24.67;20.94;101051.94;109040;1270;21963;-79
2022/05/10 10:58:48;;;;;;;;;;;;;;;24.23;21.40;101049.14;109206;1270;23184;-79
2022/05/10 11:01:20;;;;;;;;;;;;;;;23.93;21.46;101045.20;109587;1263;21988;-77
2022/05/10 11:04:12;;;;;;;;;;;;;;;23.67;22.00;101040.39;109603;1263;23697;-79
2022/05/10 11:06:54;;;;;;;;;;;;;;;23.32;21.84;101035.52;109656;1262;22098;-79
2022/05/10 11:09:38;;;;;;;;;;;;;;;23.05;22.10;101031.23;109588;1263;21962;-79
2022/05/10 11:12:28;;;;;;;;;;;;;;;22.98;22.48;101027.46;109549;1264;21962;-78
2022/05/10 11:15:02;;;;;;;;;;;;;;;22.93;22.44;101022.77;109650;1263;21959;-78
2022/05/10 11:17:38;;;;;;;;;;;;;;;22.82;22.52;101018.21;109081;1267;21978;-78
2022/05/10 11:20:36;;;;;;;;;;;;;;;22.70;22.56;101018.25;109087;1267;23140;-78
2022/05/10 11:23:16;;;;;;;;;;;;;;;22.57;22.56;101015.39;108764;1271;22910;-78
2022/05/10 11:26:02;;;;;;;;;;;;;;;22.50;22.71;101011.34;108849;1270;22185;-78
2022/05/10 11:28:49;;;;;;;;;;;;;;;22.50;22.94;101004.15;108984;1270;22048;-79
2022/05/10 11:31:45;;;;;;;;;;;;;;;22.60;23.39;101005.83;108934;1267;23597;-79
2022/05/10 11:34:34;;;;;;;;;;;;;;;22.70;23.28;101004.30;109144;1268;21980;-78
2022/05/10 11:37:06;;;;;;;;;;;;;;;22.66;23.12;100992.34;109130;1267;21979;-79
2022/05/10 11:39:47;;;;;;;;;;;;;;;22.60;23.19;100983.03;108766;1270;23780;-78
2022/05/10 11:42:32;;;;;;;;;;;;;;;22.60;23.46;100984.45;109276;1264;21968;-79
2022/05/10 11:45:23;;;;;;;;;;;;;;;22.64;23.38;100980.52;109296;1265;23138;-78
2022/05/10 11:48:18;;;;;;;;;;;;;;;22.72;23.17;100978.60;109509;1264;21980;-78
2022/05/10 11:53:46;;;;;;;;;;;;;;;22.89;22.58;100970.61;109316;1267;23663;-78
2022/05/10 11:56:15;;;;;;;;;;;;;;;22.93;22.67;100967.05;109193;1264;23139;-79
2022/05/10 11:58:44;;;;;;;;;;;;;;;23.01;22.69;100967.02;109493;1264;22063;-79
2022/05/10 12:01:46;;;;;;;;;;;;;;;23.05;22.69;100963.70;109979;1258;22022;-79
2022/05/10 12:04:42;;;;;;;;;;;;;;;23.08;22.72;100959.27;110290;1259;22013;-79
2022/05/10 12:07:20;;;;;;;;;;;;;;;23.13;22.59;100954.30;110299;1257;22076;-78
2022/05/10 12:09:55;;;;;;;;;;;;;;;23.10;22.62;100946.79;109870;1261;21956;-77
2022/05/10 12:13:01;;;;;;;;;;;;;;;23.07;22.69;100950.88;109807;1263;23094;-77
2022/05/10 12:21:38;;;;;;;;;;;;;;;23.04;23.28;100935.35;109203;1267;21970;-78
2022/05/10 12:24:07;;;;;;;;;;;;;;;23.07;23.23;100932.51;109180;1267;21963;-80
2022/05/10 12:26:49;;;;;;;;;;;;;;;23.05;23.08;100930.09;109267;1267;22036;-79
2022/05/10 12:29:39;;;;;;;;;;;;;;;23.01;22.85;100921.43;109209;1264;24029;-79
2022/05/10 12:32:39;;;;;;;;;;;;;;;22.92;22.57;100918.24;109539;1264;22438;-79
2022/05/10 12:35:38;;;;;;;;;;;;;;;22.88;22.88;100917.78;109579;1263;21971;-79
2022/05/10 12:38:28;;;;;;;;;;;;;;;22.84;22.79;100912.13;109604;1263;22736;-79
2022/05/10 12:41:17;;;;;;;;;;;;;;;22.84;23.05;100902.65;109490;1264;22756;-79
2022/05/10 12:44:24;;;;;;;;;;;;;;;22.87;23.21;100905.32;109405;1264;21972;-78
2022/05/10 12:47:19;;;;;;;;;;;;;;;22.88;23.24;100898.17;109664;1263;23835;-78
2022/05/10 12:50:03;;;;;;;;;;;;;;;22.86;23.15;100894.19;109548;1263;21957;-78
2022/05/10 12:52:47;;;;;;;;;;;;;;;22.91;23.16;100894.98;109821;1258;21958;-78
2022/05/10 12:55:21;;;;;;;;;;;;;;;22.96;23.11;100892.39;110044;1258;23820;-78
2022/05/10 12:58:01;;;;;;;;;;;;;;;22.93;22.81;100889.03;110245;1257;21965;-78
2022/05/10 13:00:43;;;;;;;;;;;;;;;22.87;22.83;100887.10;110099;1258;23574;-78
2022/05/10 13:03:24;;;;;;;;;;;;;;;22.78;22.76;100885.28;110224;1257;22196;-78
2022/05/10 13:06:10;;;;;;;;;;;;;;;22.74;22.74;100879.33;110284;1258;23840;-78
2022/05/10 13:08:43;;;;;;;;;;;;;;;22.77;22.94;100875.35;110289;1257;23045;-78
2022/05/10 13:12:13;;;;;;;;;;;;;;;22.77;22.96;100870.08;110245;1259;23110;-78
2022/05/10 13:14:47;;;;;;;;;;;;;;;22.81;23.04;100867.23;109514;1263;22983;-79
2022/05/10 13:17:24;;;;;;;;;;;;;;;22.84;22.92;100865.48;109490;1264;21977;-78
2022/05/10 13:19:54;;;;;;;;;;;;;;;22.83;22.81;100860.98;109745;1262;23593;-78
2022/05/10 13:22:27;;;;;;;;;;;;;;;22.85;22.67;100857.09;109791;1261;23052;-79
2022/05/10 13:25:00;;;;;;;;;;;;;;;22.88;22.46;100849.07;109527;1263;22787;-78
2022/05/10 13:27:35;;;;;;;;;;;;;;;22.90;22.34;100845.02;109353;1262;23130;-78
2022/05/10 13:30:30;;;;;;;;;;;;;;;22.92;22.31;100842.13;109717;1263;22068;-81
2022/05/10 13:33:03;;;;;;;;;;;;;;;22.95;22.29;100835.33;109146;1268;22069;-77
2022/05/10 13:35:35;;;;;;;;;;;;;;;22.98;22.20;100831.70;109042;1267;22013;-79